Time;durP1;ratioP1;P1;durP2;ratioP2;P2;SDS_P1;SDS_P2;PMS_P1;PMS_P2;Temp;Humidity;BMP_temperature;BMP_pressure;BME280_temperature;BME280_humidity;BME280_pressure;Samples;Min_cycle;Max_cycle;Signal;HPM_P1;HPM_P2
2023/04/28 00:00:13;;;;;;;7.27;4.03;;;11.40;99.90;;;;;;5069183;28;20531;-71
2023/04/28 00:02:59;;;;;;;8.30;3.90;;;11.30;99.90;;;;;;5061072;28;20852;-72
2023/04/28 00:05:45;;;;;;;6.33;3.80;;;11.30;99.90;;;;;;5066298;28;20494;-72
2023/04/28 00:08:32;;;;;;;5.10;3.67;;;11.30;99.90;;;;;;5069740;28;20445;-72
2023/04/28 00:11:17;;;;;;;7.10;4.37;;;11.30;99.90;;;;;;5061986;28;21028;-74
2023/04/28 00:14:03;;;;;;;7.90;4.37;;;11.30;99.90;;;;;;5064712;28;20443;-73
2023/04/28 00:16:49;;;;;;;7.73;3.93;;;11.30;99.90;;;;;;5069891;28;20449;-74
2023/04/28 00:19:35;;;;;;;8.47;4.20;;;11.40;99.90;;;;;;5067172;28;20492;-74
2023/04/28 00:22:20;;;;;;;5.70;3.43;;;11.30;99.90;;;;;;5063587;28;20471;-74
2023/04/28 00:25:08;;;;;;;6.00;4.47;;;11.40;99.90;;;;;;5065087;28;20516;-75
2023/04/28 00:27:53;;;;;;;4.60;3.80;;;11.40;99.90;;;;;;5067801;28;20475;-73
2023/04/28 00:30:39;;;;;;;5.40;3.50;;;11.40;99.90;;;;;;5065705;28;20433;-74
2023/04/28 00:33:24;;;;;;;5.90;3.47;;;11.40;99.90;;;;;;5064473;28;20506;-73
2023/04/28 00:36:11;;;;;;;4.23;3.83;;;11.50;99.90;;;;;;5065995;28;20502;-73
2023/04/28 00:38:56;;;;;;;10.07;3.60;;;11.50;99.90;;;;;;5069634;28;20592;-73
2023/04/28 00:41:43;;;;;;;6.93;3.40;;;11.50;99.90;;;;;;5062468;28;20474;-74
2023/04/28 00:44:28;;;;;;;4.43;3.43;;;11.40;99.90;;;;;;5062217;28;20524;-73
2023/04/28 00:47:17;;;;;;;4.43;3.60;;;11.40;99.90;;;;;;5066650;28;20448;-73
2023/04/28 00:50:05;;;;;;;7.00;3.80;;;11.40;99.90;;;;;;5066645;28;20445;-74
2023/04/28 00:52:51;;;;;;;7.03;3.47;;;11.40;99.90;;;;;;5064238;28;20441;-73
2023/04/28 00:55:38;;;;;;;7.47;4.23;;;11.40;99.90;;;;;;5062856;28;20792;-72
2023/04/28 00:58:25;;;;;;;4.00;3.30;;;11.40;99.90;;;;;;5068730;28;20467;-74
2023/04/28 01:01:10;;;;;;;7.53;4.23;;;11.40;99.90;;;;;;5067261;28;20423;-74
2023/04/28 01:03:56;;;;;;;7.53;3.60;;;11.40;99.90;;;;;;5062813;28;20970;-74
2023/04/28 01:06:42;;;;;;;6.60;3.73;;;11.40;99.90;;;;;;5056270;28;20459;-74
2023/04/28 01:09:27;;;;;;;10.27;4.80;;;11.40;99.90;;;;;;5066624;28;20775;-74
2023/04/28 01:12:13;;;;;;;7.13;4.00;;;11.40;99.90;;;;;;5062860;28;20442;-74
2023/04/28 01:15:00;;;;;;;5.07;3.57;;;11.40;99.90;;;;;;5066322;28;20423;-74
2023/04/28 01:17:46;;;;;;;8.77;4.57;;;11.40;99.90;;;;;;5070786;28;20464;-73
2023/04/28 01:20:31;;;;;;;8.03;5.20;;;11.40;99.90;;;;;;5067016;28;20435;-73
2023/04/28 01:23:17;;;;;;;8.90;4.60;;;11.40;99.90;;;;;;5065185;28;20575;-74
2023/04/28 01:26:04;;;;;;;10.07;4.20;;;11.40;99.90;;;;;;5066168;28;20436;-72
2023/04/28 01:28:49;;;;;;;8.07;4.30;;;11.40;99.90;;;;;;5065872;28;20472;-73
2023/04/28 01:31:35;;;;;;;6.33;4.27;;;11.40;99.90;;;;;;5063727;28;20428;-72
2023/04/28 01:34:20;;;;;;;7.30;5.50;;;11.40;99.90;;;;;;5062454;28;20440;-72
2023/04/28 01:37:06;;;;;;;8.77;4.07;;;11.50;99.90;;;;;;5063151;28;20419;-74
2023/04/28 01:39:51;;;;;;;10.20;5.30;;;11.40;99.90;;;;;;5064098;28;20461;-73
2023/04/28 01:42:39;;;;;;;9.20;6.30;;;11.50;99.90;;;;;;5063392;28;20473;-74
2023/04/28 01:45:24;;;;;;;7.63;5.37;;;11.40;99.90;;;;;;5064991;28;20424;-74
2023/04/28 01:48:10;;;;;;;9.20;5.50;;;11.30;99.90;;;;;;5065262;28;20603;-74
2023/04/28 01:50:55;;;;;;;7.50;5.10;;;11.30;99.90;;;;;;5059811;28;20447;-74
2023/04/28 01:53:41;;;;;;;6.87;4.90;;;11.30;99.90;;;;;;5058856;28;20438;-74
2023/04/28 01:56:26;;;;;;;7.53;4.80;;;11.30;99.90;;;;;;5067713;28;20427;-75
2023/04/28 01:59:13;;;;;;;11.57;5.47;;;11.40;99.90;;;;;;5066716;28;20480;-74
2023/04/28 02:01:58;;;;;;;11.40;4.33;;;11.40;99.90;;;;;;5063053;28;20622;-74
2023/04/28 02:04:44;;;;;;;7.50;4.60;;;11.40;99.90;;;;;;5063799;28;20420;-74
2023/04/28 02:07:30;;;;;;;4.80;3.83;;;11.40;99.90;;;;;;5065638;28;20415;-74
2023/04/28 02:10:15;;;;;;;8.63;3.70;;;11.50;99.90;;;;;;5061813;28;20478;-74
2023/04/28 02:13:00;;;;;;;7.20;4.10;;;11.50;99.90;;;;;;5064808;28;20460;-74
2023/04/28 02:15:47;;;;;;;6.47;5.03;;;11.60;99.90;;;;;;5067709;28;20956;-74
2023/04/28 02:18:34;;;;;;;6.00;4.17;;;11.60;99.90;;;;;;5060926;28;20559;-73
2023/04/28 02:21:20;;;;;;;6.53;4.53;;;11.60;99.90;;;;;;5062643;28;20472;-74
2023/04/28 02:24:06;;;;;;;5.73;4.23;;;11.60;99.90;;;;;;5067353;28;20957;-73
2023/04/28 02:26:52;;;;;;;7.50;4.40;;;11.60;99.90;;;;;;5063017;28;20490;-74
2023/04/28 02:29:37;;;;;;;5.60;3.77;;;11.60;99.90;;;;;;5066366;28;20558;-73
2023/04/28 02:32:24;;;;;;;8.47;5.13;;;11.60;99.90;;;;;;5065852;28;20538;-74
2023/04/28 02:35:10;;;;;;;6.13;4.70;;;11.60;99.90;;;;;;5057479;28;20536;-74
2023/04/28 02:37:55;;;;;;;8.47;4.57;;;11.60;99.90;;;;;;5061519;28;20420;-75
2023/04/28 02:40:41;;;;;;;6.17;4.27;;;11.60;99.90;;;;;;5059591;28;20515;-75
2023/04/28 02:43:26;;;;;;;8.80;5.00;;;11.60;99.90;;;;;;5065508;28;20976;-74
2023/04/28 02:46:12;;;;;;;10.10;5.10;;;11.70;99.90;;;;;;5060290;28;20464;-72
2023/04/28 02:48:59;;;;;;;7.07;5.10;;;11.70;99.90;;;;;;5064386;28;20441;-74
2023/04/28 02:51:44;;;;;;;6.80;4.40;;;11.70;99.90;;;;;;5061252;28;22513;-74
2023/04/28 02:54:31;;;;;;;4.10;3.43;;;11.70;99.90;;;;;;5062712;28;20462;-74
2023/04/28 02:57:17;;;;;;;8.63;4.10;;;11.70;99.90;;;;;;5063438;28;20427;-73
2023/04/28 03:00:02;;;;;;;6.27;4.23;;;11.70;99.90;;;;;;5064842;28;20445;-73
2023/04/28 03:02:48;;;;;;;7.97;5.07;;;11.70;99.90;;;;;;5067959;28;20451;-74
2023/04/28 03:05:34;;;;;;;5.90;4.63;;;11.60;99.90;;;;;;5062675;28;20422;-74
2023/04/28 03:08:21;;;;;;;7.63;4.77;;;11.60;99.90;;;;;;5063940;28;20461;-74
2023/04/28 03:11:06;;;;;;;7.97;5.40;;;11.60;99.90;;;;;;5063753;28;20427;-74
2023/04/28 03:13:51;;;;;;;8.80;5.47;;;11.60;99.90;;;;;;5066761;28;20441;-74
2023/04/28 03:16:37;;;;;;;6.40;5.80;;;11.70;99.90;;;;;;5067767;28;20474;-74
2023/04/28 03:19:23;;;;;;;13.13;6.53;;;11.60;99.90;;;;;;5061174;28;20486;-74
2023/04/28 03:22:10;;;;;;;11.90;5.50;;;11.60;99.90;;;;;;5064507;28;20827;-75
2023/04/28 03:24:55;;;;;;;9.27;6.37;;;11.70;99.90;;;;;;5066190;28;20520;-74
2023/04/28 03:27:41;;;;;;;8.87;5.10;;;11.60;99.90;;;;;;5067536;28;20450;-74
2023/04/28 03:30:26;;;;;;;9.23;5.87;;;11.60;99.90;;;;;;5058416;28;20464;-74
2023/04/28 03:33:12;;;;;;;9.57;6.33;;;11.60;99.90;;;;;;5058646;28;20446;-73
2023/04/28 03:35:58;;;;;;;6.97;5.73;;;11.60;99.90;;;;;;5065348;28;20498;-74
2023/04/28 03:38:45;;;;;;;10.43;6.00;;;11.70;99.90;;;;;;5063417;28;20570;-73
2023/04/28 03:41:30;;;;;;;8.00;5.87;;;11.60;99.90;;;;;;5058940;28;21242;-74
2023/04/28 03:44:15;;;;;;;8.90;7.70;;;11.70;99.90;;;;;;5063691;28;20801;-74
2023/04/28 03:47:01;;;;;;;12.97;7.50;;;11.60;99.90;;;;;;5064579;28;20453;-74
2023/04/28 03:49:46;;;;;;;7.10;5.20;;;11.60;99.90;;;;;;5061753;28;20985;-75
2023/04/28 03:52:32;;;;;;;8.30;5.67;;;11.60;99.90;;;;;;5060483;28;20522;-74
2023/04/28 03:55:18;;;;;;;7.90;6.00;;;11.60;99.90;;;;;;5062924;28;20545;-74
2023/04/28 03:58:04;;;;;;;11.03;6.50;;;11.70;99.90;;;;;;5067992;28;20472;-72
2023/04/28 04:00:49;;;;;;;13.80;6.40;;;11.60;99.90;;;;;;5064494;28;20952;-74
2023/04/28 04:03:35;;;;;;;7.87;5.87;;;11.60;99.90;;;;;;5065822;28;20502;-73
2023/04/28 04:06:21;;;;;;;12.67;6.87;;;11.60;99.90;;;;;;5068830;28;20460;-73
2023/04/28 04:09:07;;;;;;;6.63;4.80;;;11.60;99.90;;;;;;5062656;28;20472;-74
2023/04/28 04:11:54;;;;;;;7.13;5.50;;;11.70;99.90;;;;;;5067564;28;20522;-74
2023/04/28 04:14:39;;;;;;;7.83;6.63;;;11.70;99.90;;;;;;5067712;28;20595;-73
2023/04/28 04:17:25;;;;;;;6.87;5.13;;;11.60;99.90;;;;;;5069603;28;20435;-74
2023/04/28 04:20:11;;;;;;;6.70;5.93;;;11.60;99.90;;;;;;5061044;28;20443;-74
2023/04/28 04:22:56;;;;;;;11.00;5.33;;;11.60;99.90;;;;;;5069070;28;20555;-74
2023/04/28 04:25:42;;;;;;;8.10;5.17;;;11.60;99.90;;;;;;5067577;28;20447;-74
2023/04/28 04:28:29;;;;;;;9.43;5.97;;;11.60;99.90;;;;;;5063741;28;21047;-73
2023/04/28 04:31:15;;;;;;;7.27;5.70;;;11.50;99.90;;;;;;5066211;28;21020;-74
2023/04/28 04:34:00;;;;;;;7.60;5.37;;;11.50;99.90;;;;;;5067896;28;20961;-73
2023/04/28 04:36:46;;;;;;;6.67;5.60;;;11.60;99.90;;;;;;5068653;28;20966;-73
2023/04/28 04:39:31;;;;;;;7.70;5.67;;;11.50;99.90;;;;;;5061517;28;20461;-74
2023/04/28 04:42:17;;;;;;;6.47;5.73;;;11.50;99.90;;;;;;5063910;28;20449;-73
2023/04/28 04:45:05;;;;;;;12.43;5.90;;;11.60;99.90;;;;;;5065035;28;20449;-73
2023/04/28 04:47:50;;;;;;;8.33;6.27;;;11.60;99.90;;;;;;5063419;28;20446;-72
2023/04/28 04:50:36;;;;;;;7.17;5.50;;;11.60;99.90;;;;;;5067209;28;22315;-73
2023/04/28 04:53:21;;;;;;;6.17;5.20;;;11.60;99.90;;;;;;5061732;28;20454;-73
2023/04/28 04:56:07;;;;;;;7.83;5.20;;;11.70;99.90;;;;;;5066837;28;20503;-74
2023/04/28 04:58:52;;;;;;;7.30;5.40;;;11.70;99.90;;;;;;5064792;28;20543;-72
2023/04/28 05:01:39;;;;;;;13.83;6.00;;;11.70;99.90;;;;;;5069158;28;20445;-74
2023/04/28 05:04:25;;;;;;;12.07;5.20;;;11.80;99.90;;;;;;5066620;28;20998;-74
2023/04/28 05:07:11;;;;;;;7.57;4.97;;;11.90;99.90;;;;;;5069223;28;20526;-73
2023/04/28 05:09:56;;;;;;;8.67;5.40;;;11.80;99.90;;;;;;5062132;28;20477;-73
2023/04/28 05:12:43;;;;;;;11.70;5.30;;;11.90;99.90;;;;;;5067410;28;20874;-74
2023/04/28 05:15:28;;;;;;;10.43;5.33;;;11.90;99.90;;;;;;5062075;28;20449;-74
2023/04/28 05:18:15;;;;;;;6.77;5.40;;;11.90;99.90;;;;;;5062874;28;20835;-73
2023/04/28 05:21:01;;;;;;;8.13;5.03;;;11.90;99.90;;;;;;5067749;28;20912;-74
2023/04/28 05:23:46;;;;;;;5.23;4.73;;;11.90;99.90;;;;;;5060025;28;20485;-73
2023/04/28 05:26:31;;;;;;;7.30;5.23;;;11.90;99.90;;;;;;5064869;28;20450;-74
2023/04/28 05:29:17;;;;;;;8.67;5.20;;;11.90;99.90;;;;;;5072612;22;20494;-73
2023/04/28 05:32:02;;;;;;;9.37;6.80;;;12.00;99.90;;;;;;5077495;28;20427;-74
2023/04/28 05:34:50;;;;;;;8.83;5.87;;;12.00;99.90;;;;;;5059324;28;20434;-73
2023/04/28 05:37:36;;;;;;;6.97;5.90;;;12.00;99.90;;;;;;5061613;28;20825;-73
2023/04/28 05:40:22;;;;;;;7.17;5.50;;;12.10;99.90;;;;;;5067041;28;20461;-74
2023/04/28 05:43:07;;;;;;;11.13;5.10;;;12.10;99.90;;;;;;5066966;28;20450;-73
2023/04/28 05:45:53;;;;;;;8.00;5.23;;;12.10;99.90;;;;;;5062514;28;20441;-72
2023/04/28 05:48:38;;;;;;;6.53;5.20;;;12.10;99.90;;;;;;5064154;28;20435;-73
2023/04/28 05:51:26;;;;;;;6.40;4.60;;;12.10;99.90;;;;;;5062388;28;20491;-73
2023/04/28 05:54:11;;;;;;;8.03;4.80;;;12.20;99.90;;;;;;5062952;28;20453;-73
2023/04/28 05:56:59;;;;;;;5.90;4.50;;;12.10;99.90;;;;;;5061234;28;20507;-73
2023/04/28 05:59:44;;;;;;;8.83;4.97;;;12.20;99.90;;;;;;5063160;28;20947;-74
2023/04/28 06:02:30;;;;;;;7.57;5.27;;;12.20;99.90;;;;;;5058321;28;20445;-73
2023/04/28 06:05:15;;;;;;;7.07;4.47;;;12.20;99.90;;;;;;5057057;28;21921;-73
2023/04/28 06:08:03;;;;;;;9.57;5.67;;;12.30;99.90;;;;;;5066455;28;20432;-73
2023/04/28 06:10:48;;;;;;;11.53;4.90;;;12.30;99.90;;;;;;5066590;28;20449;-73
2023/04/28 06:13:33;;;;;;;5.60;4.83;;;12.30;99.90;;;;;;5067818;28;20424;-73
2023/04/28 06:16:19;;;;;;;6.83;5.20;;;12.30;99.90;;;;;;5062503;28;20990;-74
2023/04/28 06:19:04;;;;;;;6.30;5.00;;;12.40;99.90;;;;;;5065374;28;20520;-73
2023/04/28 06:21:51;;;;;;;5.83;4.50;;;12.30;99.90;;;;;;5064894;28;20442;-73
2023/04/28 06:24:40;;;;;;;9.33;5.17;;;12.40;99.90;;;;;;5058678;28;20547;-73
2023/04/28 06:27:26;;;;;;;8.30;5.70;;;12.40;99.90;;;;;;5065092;28;20824;-74
2023/04/28 06:30:18;;;;;;;11.57;5.67;;;12.50;99.90;;;;;;5058282;28;20465;-73
2023/04/28 06:33:04;;;;;;;8.00;5.40;;;12.50;99.90;;;;;;5059795;28;20454;-73
2023/04/28 06:35:49;;;;;;;14.20;7.23;;;12.50;99.90;;;;;;5059254;28;20905;-73
2023/04/28 06:38:35;;;;;;;10.20;5.90;;;12.60;99.90;;;;;;5060655;28;20439;-73
2023/04/28 06:41:22;;;;;;;8.57;6.27;;;12.60;99.90;;;;;;5067244;28;20450;-73
2023/04/28 06:44:08;;;;;;;9.70;6.30;;;12.70;99.90;;;;;;5062212;28;20582;-74
2023/04/28 06:46:53;;;;;;;9.67;6.30;;;12.70;99.90;;;;;;5060271;28;20437;-74
2023/04/28 06:49:38;;;;;;;10.33;6.37;;;12.70;99.90;;;;;;5055892;28;20473;-74
2023/04/28 06:52:24;;;;;;;8.77;7.20;;;12.80;99.90;;;;;;5060833;28;20456;-73
2023/04/28 06:55:10;;;;;;;10.60;6.40;;;12.80;99.90;;;;;;5071798;28;20802;-74
2023/04/28 06:57:57;;;;;;;10.17;7.20;;;12.80;99.90;;;;;;5060227;28;20444;-74
2023/04/28 07:00:42;;;;;;;8.27;6.60;;;12.80;99.90;;;;;;5063667;28;20937;-73
2023/04/28 07:03:28;;;;;;;13.90;6.20;;;12.90;99.90;;;;;;5069452;28;20863;-73
2023/04/28 07:06:13;;;;;;;6.90;6.03;;;12.90;99.90;;;;;;5064225;28;20452;-73
2023/04/28 07:08:59;;;;;;;8.50;7.40;;;12.90;99.90;;;;;;5068710;28;20473;-73
2023/04/28 07:11:45;;;;;;;7.70;6.03;;;12.90;99.90;;;;;;5056267;28;20811;-73
2023/04/28 07:14:31;;;;;;;8.27;7.43;;;12.90;99.90;;;;;;5057978;28;20443;-73
2023/04/28 07:17:17;;;;;;;8.00;6.23;;;13.00;99.90;;;;;;5057167;28;21003;-74
2023/04/28 07:20:03;;;;;;;13.07;6.47;;;12.90;99.90;;;;;;5068466;28;20516;-73
2023/04/28 07:22:48;;;;;;;7.50;6.63;;;12.90;99.90;;;;;;5062919;28;20448;-74
2023/04/28 07:25:34;;;;;;;9.57;7.00;;;12.90;99.90;;;;;;5057906;28;20451;-73
2023/04/28 07:28:20;;;;;;;8.67;6.57;;;12.90;99.90;;;;;;5057176;28;20445;-73
2023/04/28 07:31:07;;;;;;;9.80;7.10;;;12.90;99.90;;;;;;5067736;28;20469;-73
2023/04/28 07:33:52;;;;;;;11.67;7.30;;;12.90;99.90;;;;;;5060774;28;21020;-73
2023/04/28 07:36:38;;;;;;;8.47;7.27;;;12.90;99.90;;;;;;5058983;28;20563;-73
2023/04/28 07:39:23;;;;;;;7.50;6.10;;;12.90;99.90;;;;;;5068324;28;20459;-74
2023/04/28 07:42:10;;;;;;;7.40;6.60;;;12.90;99.90;;;;;;5063926;28;20780;-72
2023/04/28 07:44:57;;;;;;;9.20;7.17;;;12.90;99.90;;;;;;5064591;28;20477;-73
2023/04/28 07:47:43;;;;;;;10.03;7.70;;;13.00;99.90;;;;;;5062374;28;20432;-73
2023/04/28 07:50:29;;;;;;;7.50;6.30;;;13.00;99.90;;;;;;5064234;28;20441;-73
2023/04/28 07:53:15;;;;;;;6.73;5.90;;;13.00;99.90;;;;;;5056731;28;20442;-74
2023/04/28 07:56:00;;;;;;;14.50;6.50;;;13.00;99.90;;;;;;5058200;28;20444;-73
2023/04/28 07:58:46;;;;;;;7.30;6.60;;;13.10;99.90;;;;;;5061159;28;21002;-75
2023/04/28 08:01:31;;;;;;;7.50;6.30;;;13.10;99.90;;;;;;5074066;28;20531;-73
2023/04/28 08:04:18;;;;;;;7.30;6.47;;;13.10;99.90;;;;;;5061114;28;20807;-73
2023/04/28 08:07:04;;;;;;;7.77;6.87;;;13.10;99.90;;;;;;5064921;28;20422;-73
2023/04/28 08:09:49;;;;;;;7.07;6.37;;;13.10;99.90;;;;;;5068044;28;20440;-73
2023/04/28 08:12:35;;;;;;;7.60;6.80;;;13.10;99.90;;;;;;5062213;28;20583;-73
2023/04/28 08:15:20;;;;;;;7.70;6.90;;;13.10;99.90;;;;;;5064469;28;20445;-73
2023/04/28 08:18:07;;;;;;;8.33;7.20;;;13.20;99.90;;;;;;5067728;28;20549;-73
2023/04/28 08:20:54;;;;;;;10.10;6.77;;;13.30;99.90;;;;;;5073983;28;20824;-71
2023/04/28 08:23:39;;;;;;;12.47;6.40;;;13.40;99.90;;;;;;5070202;28;20887;-72
2023/04/28 08:26:25;;;;;;;7.87;7.00;;;13.40;99.90;;;;;;5062639;28;20472;-74
2023/04/28 08:29:10;;;;;;;7.80;7.00;;;13.40;99.90;;;;;;5063530;28;20493;-72
2023/04/28 08:31:56;;;;;;;7.37;6.40;;;13.40;99.90;;;;;;5073481;28;20453;-73
2023/04/28 08:34:41;;;;;;;8.87;7.43;;;13.50;99.90;;;;;;5066091;28;20415;-72
2023/04/28 08:37:28;;;;;;;8.77;5.90;;;13.60;99.90;;;;;;5069022;28;20444;-73
2023/04/28 08:40:14;;;;;;;8.33;7.30;;;13.60;99.90;;;;;;5065013;28;20998;-73
2023/04/28 08:43:00;;;;;;;9.77;7.87;;;13.70;99.90;;;;;;5065864;28;20445;-74
2023/04/28 08:45:45;;;;;;;9.10;7.87;;;13.70;99.90;;;;;;5063743;28;20412;-74
2023/04/28 08:48:38;;;;;;;9.40;6.97;;;13.70;99.90;;;;;;5058598;28;20946;-75
2023/04/28 08:51:30;;;;;;;7.80;7.00;;;13.80;99.90;;;;;;5063839;28;20462;-74
2023/04/28 08:54:18;;;;;;;7.87;6.93;;;13.80;99.90;;;;;;5065832;28;21290;-74
2023/04/28 08:57:04;;;;;;;8.63;7.17;;;13.80;99.90;;;;;;5065293;28;20445;-72
2023/04/28 08:59:50;;;;;;;8.93;7.00;;;13.80;99.90;;;;;;5077945;28;20489;-73
2023/04/28 09:02:37;;;;;;;8.27;7.20;;;13.90;99.90;;;;;;5066304;28;20792;-73
2023/04/28 09:05:22;;;;;;;8.13;7.30;;;13.90;99.90;;;;;;5048711;28;20825;-74
2023/04/28 09:08:10;;;;;;;8.93;6.80;;;13.90;99.90;;;;;;5066903;28;21118;-73
2023/04/28 09:11:08;;;;;;;8.00;7.30;;;13.90;99.90;;;;;;5069781;28;20539;-73
2023/04/28 09:14:11;;;;;;;7.73;6.93;;;13.80;99.90;;;;;;5067787;28;20441;-74
2023/04/28 09:16:57;;;;;;;7.03;5.97;;;13.80;99.90;;;;;;5067627;28;20563;-73
2023/04/28 09:19:42;;;;;;;8.03;6.30;;;13.90;99.90;;;;;;5066193;28;20464;-74
2023/04/28 09:22:28;;;;;;;7.97;6.53;;;13.80;99.90;;;;;;5064116;28;20454;-74
2023/04/28 09:25:14;;;;;;;8.20;7.40;;;13.90;99.90;;;;;;5061648;28;20610;-74
2023/04/28 09:28:20;;;;;;;7.43;6.63;;;13.90;99.90;;;;;;5066199;28;20440;-73
2023/04/28 09:31:05;;;;;;;7.33;6.27;;;14.00;99.90;;;;;;5065628;28;20444;-74
2023/04/28 09:33:57;;;;;;;7.07;6.17;;;14.00;99.90;;;;;;5067872;28;20509;-74
2023/04/28 09:36:43;;;;;;;7.30;6.47;;;14.00;99.90;;;;;;5069202;28;20985;-75
2023/04/28 09:39:31;;;;;;;7.90;6.63;;;14.00;99.90;;;;;;5059240;28;20481;-74
2023/04/28 09:42:32;;;;;;;7.10;6.40;;;14.00;99.90;;;;;;5068843;28;20635;-74
2023/04/28 09:45:19;;;;;;;7.90;6.40;;;14.00;99.90;;;;;;5062490;28;20455;-74
2023/04/28 09:48:10;;;;;;;7.90;6.60;;;14.10;99.90;;;;;;5069582;28;20595;-74
2023/04/28 09:50:56;;;;;;;9.30;7.67;;;14.10;99.90;;;;;;5068451;28;20467;-73
2023/04/28 09:53:43;;;;;;;8.17;7.00;;;14.10;99.90;;;;;;5069292;28;20594;-75
2023/04/28 09:56:29;;;;;;;8.27;7.47;;;14.10;99.90;;;;;;5067218;28;20451;-74
2023/04/28 09:59:14;;;;;;;7.80;7.00;;;14.20;99.90;;;;;;5067278;28;20465;-74
2023/04/28 10:02:01;;;;;;;7.63;6.93;;;14.10;99.90;;;;;;5062928;28;20450;-75
2023/04/28 10:04:49;;;;;;;8.93;8.03;;;14.10;99.90;;;;;;5065823;28;20451;-74
2023/04/28 10:07:34;;;;;;;9.03;8.13;;;14.10;99.90;;;;;;5066195;28;20551;-74
2023/04/28 10:10:20;;;;;;;8.73;7.83;;;14.10;99.90;;;;;;5068986;28;20533;-73
2023/04/28 10:13:05;;;;;;;9.10;8.03;;;14.10;99.90;;;;;;5067356;28;20446;-74
2023/04/28 10:15:54;;;;;;;7.90;7.20;;;14.10;99.90;;;;;;5065830;28;20543;-74
2023/04/28 10:18:40;;;;;;;7.30;6.60;;;14.10;99.90;;;;;;5067190;28;20468;-74
2023/04/28 10:21:28;;;;;;;9.07;8.17;;;14.20;99.90;;;;;;5067982;28;20515;-73
2023/04/28 10:24:18;;;;;;;9.07;8.17;;;14.20;99.90;;;;;;5060417;28;20556;-74
2023/04/28 10:27:08;;;;;;;8.93;8.00;;;14.30;99.90;;;;;;5066926;28;20419;-74
2023/04/28 10:29:54;;;;;;;11.30;9.20;;;14.20;99.90;;;;;;5069019;28;20480;-73
2023/04/28 10:32:40;;;;;;;12.43;9.60;;;14.20;99.90;;;;;;5069264;28;20449;-73
2023/04/28 10:35:44;;;;;;;12.00;10.57;;;14.20;99.90;;;;;;5062126;28;20444;-74
2023/04/28 10:38:29;;;;;;;10.47;9.23;;;14.20;99.90;;;;;;5069035;28;20476;-74
2023/04/28 10:41:33;;;;;;;13.07;11.00;;;14.20;99.90;;;;;;5069616;28;20485;-73
2023/04/28 10:44:43;;;;;;;12.73;11.40;;;14.30;99.90;;;;;;5064268;28;20472;-74
2023/04/28 10:47:28;;;;;;;12.67;11.27;;;14.30;99.90;;;;;;5068465;28;20464;-74
2023/04/28 10:50:14;;;;;;;14.10;12.00;;;14.30;99.90;;;;;;5067453;28;20469;-73
2023/04/28 10:53:01;;;;;;;12.60;10.87;;;14.30;99.90;;;;;;5067136;28;20442;-74
2023/04/28 10:56:05;;;;;;;13.77;12.17;;;14.30;99.90;;;;;;5067152;28;21066;-74
2023/04/28 10:58:51;;;;;;;13.40;12.00;;;14.30;99.90;;;;;;5066793;28;20469;-74
2023/04/28 11:01:39;;;;;;;19.80;13.40;;;14.40;99.90;;;;;;5064076;28;20941;-73
2023/04/28 11:04:24;;;;;;;51.53;22.70;;;14.50;99.90;;;;;;5063541;28;20472;-73
2023/04/28 11:07:12;;;;;;;14.33;12.70;;;14.50;99.90;;;;;;5068194;28;21016;-73
2023/04/28 11:09:59;;;;;;;12.83;11.23;;;14.60;99.90;;;;;;5066003;28;20994;-73
2023/04/28 11:13:17;;;;;;;12.80;11.63;;;14.70;99.90;;;;;;5066428;28;20958;-74
2023/04/28 11:16:04;;;;;;;15.63;12.07;;;14.70;99.90;;;;;;5067617;28;20445;-73
2023/04/28 11:18:58;;;;;;;12.53;11.30;;;14.70;99.90;;;;;;5072899;28;20853;-73
2023/04/28 11:21:43;;;;;;;15.60;10.97;;;14.70;99.90;;;;;;5070935;28;20565;-74
2023/04/28 11:24:29;;;;;;;14.83;11.70;;;14.70;99.90;;;;;;5065166;28;22153;-73
2023/04/28 11:27:25;;;;;;;13.23;10.70;;;14.70;99.90;;;;;;5072470;28;20441;-73
2023/04/28 11:30:21;;;;;;;11.70;10.57;;;14.80;99.90;;;;;;5089344;22;20513;-73
2023/04/28 11:33:07;;;;;;;11.53;10.43;;;14.90;99.90;;;;;;5076449;28;20953;-72
2023/04/28 11:35:52;;;;;;;11.37;9.93;;;14.80;99.90;;;;;;5075972;28;20809;-73
2023/04/28 11:38:45;;;;;;;11.30;10.10;;;14.80;99.90;;;;;;5076059;28;20487;-73
2023/04/28 11:41:33;;;;;;;10.50;9.50;;;14.80;99.90;;;;;;5087365;28;20445;-73
2023/04/28 11:44:21;;;;;;;11.10;10.00;;;14.80;99.90;;;;;;5069347;28;20462;-73
2023/04/28 11:47:07;;;;;;;12.30;10.87;;;14.80;99.90;;;;;;5075281;28;20444;-73
2023/04/28 11:49:52;;;;;;;17.27;10.50;;;14.80;99.90;;;;;;5080605;28;20458;-73
2023/04/28 11:52:48;;;;;;;12.90;10.80;;;14.80;99.90;;;;;;5070990;28;20489;-73
2023/04/28 11:55:33;;;;;;;11.47;10.37;;;14.80;99.90;;;;;;5078783;28;21121;-73
2023/04/28 11:58:21;;;;;;;10.83;9.73;;;14.80;99.90;;;;;;5073175;28;20445;-73
2023/04/28 12:01:12;;;;;;;12.03;10.53;;;14.80;99.90;;;;;;5081623;28;20600;-72
2023/04/28 12:03:57;;;;;;;16.63;9.60;;;14.80;99.90;;;;;;5076701;28;20531;-73
2023/04/28 12:06:43;;;;;;;10.50;9.50;;;14.90;99.90;;;;;;5076660;28;20531;-73
2023/04/28 12:09:28;;;;;;;11.00;9.90;;;14.90;99.90;;;;;;5075379;28;20985;-73
2023/04/28 12:12:17;;;;;;;11.17;9.00;;;14.90;99.90;;;;;;5064851;28;20440;-72
2023/04/28 12:15:04;;;;;;;10.47;9.23;;;14.90;99.90;;;;;;5070049;28;20422;-73
2023/04/28 12:17:52;;;;;;;11.70;9.47;;;14.90;99.90;;;;;;5066792;28;20439;-73
2023/04/28 12:20:38;;;;;;;10.43;9.33;;;14.90;99.90;;;;;;5070863;28;20827;-73
2023/04/28 12:23:30;;;;;;;10.27;8.87;;;14.90;99.90;;;;;;5067959;28;20442;-73
2023/04/28 12:26:25;;;;;;;10.47;9.40;;;14.90;99.90;;;;;;5072265;28;20473;-73
2023/04/28 12:29:30;;;;;;;10.10;9.10;;;14.90;99.90;;;;;;5084083;28;20459;-72
2023/04/28 12:32:16;;;;;;;9.40;8.50;;;14.90;99.90;;;;;;5072495;28;20547;-72
2023/04/28 12:35:04;;;;;;;9.10;8.13;;;14.90;99.90;;;;;;5072070;28;20411;-73
2023/04/28 12:37:49;;;;;;;9.63;8.73;;;14.90;99.90;;;;;;5085614;28;20547;-73
2023/04/28 12:40:34;;;;;;;9.30;8.30;;;14.90;99.90;;;;;;5075930;28;20484;-73
2023/04/28 12:43:22;;;;;;;9.20;8.30;;;14.90;99.90;;;;;;5066343;28;20485;-72
2023/04/28 12:46:07;;;;;;;9.53;8.30;;;15.00;99.90;;;;;;5073077;28;20469;-73
2023/04/28 12:48:53;;;;;;;9.90;9.00;;;15.00;99.90;;;;;;5079833;28;20480;-73
2023/04/28 12:51:40;;;;;;;8.83;7.93;;;15.00;99.90;;;;;;5079612;28;20437;-72
2023/04/28 12:54:26;;;;;;;12.87;8.60;;;15.00;99.90;;;;;;5077279;28;20446;-73
2023/04/28 12:57:12;;;;;;;8.90;8.03;;;15.00;99.90;;;;;;5071290;28;20457;-73
2023/04/28 12:59:58;;;;;;;10.40;7.80;;;15.10;99.90;;;;;;5078477;28;20492;-72
2023/04/28 13:02:45;;;;;;;8.90;7.67;;;15.20;99.90;;;;;;5065860;28;20443;-72
2023/04/28 13:05:33;;;;;;;10.83;7.93;;;15.20;99.90;;;;;;5078834;28;21002;-71
2023/04/28 13:08:30;;;;;;;9.93;8.00;;;15.20;99.90;;;;;;5075445;28;20944;-71
2023/04/28 13:11:26;;;;;;;8.13;7.33;;;15.20;99.90;;;;;;5084512;28;21139;-72
2023/04/28 13:14:13;;;;;;;6.27;5.23;;;15.20;99.90;;;;;;5079402;28;20524;-71
2023/04/28 13:16:59;;;;;;;5.00;4.50;;;15.30;99.90;;;;;;5074241;28;20453;-71
2023/04/28 13:19:44;;;;;;;4.80;4.00;;;15.30;99.90;;;;;;5072679;28;20521;-71
2023/04/28 13:22:30;;;;;;;5.60;4.87;;;15.30;99.90;;;;;;5065802;28;20548;-71
2023/04/28 13:25:19;;;;;;;5.50;4.30;;;15.40;99.90;;;;;;5075070;28;20474;-71
2023/04/28 13:28:05;;;;;;;4.10;3.70;;;15.40;99.90;;;;;;5071083;28;20449;-72
2023/04/28 13:30:51;;;;;;;5.47;3.63;;;15.40;99.90;;;;;;5063490;28;20840;-72
2023/04/28 13:33:38;;;;;;;3.83;3.13;;;15.40;99.90;;;;;;5081711;28;20440;-72
2023/04/28 13:36:24;;;;;;;4.13;3.50;;;15.40;99.90;;;;;;5076917;28;20958;-72
2023/04/28 13:39:12;;;;;;;4.30;2.80;;;15.50;99.90;;;;;;5074654;28;20460;-72
2023/04/28 13:42:00;;;;;;;3.80;3.03;;;15.50;99.90;;;;;;5068012;28;21096;-72
2023/04/28 13:44:50;;;;;;;5.17;3.23;;;15.50;99.90;;;;;;5080551;28;20497;-72
2023/04/28 13:47:36;;;;;;;6.03;2.50;;;15.50;99.90;;;;;;5072784;28;20478;-71
2023/04/28 13:50:22;;;;;;;4.20;2.77;;;15.50;99.90;;;;;;5080440;28;20469;-71
2023/04/28 13:53:08;;;;;;;3.33;2.73;;;15.50;99.90;;;;;;5064819;28;22371;-72
2023/04/28 13:55:56;;;;;;;8.23;2.70;;;15.50;99.90;;;;;;5072038;28;20520;-72
2023/04/28 13:58:45;;;;;;;5.87;3.37;;;15.50;99.90;;;;;;5086938;28;20459;-72
2023/04/28 14:01:31;;;;;;;14.17;4.73;;;15.50;99.90;;;;;;5054687;28;20454;-72
2023/04/28 14:04:18;;;;;;;9.90;2.90;;;15.60;99.90;;;;;;5043707;28;20912;-72
2023/04/28 14:07:04;;;;;;;3.93;2.87;;;15.60;99.90;;;;;;5044691;28;20482;-72
2023/04/28 14:09:50;;;;;;;3.63;2.07;;;15.70;99.90;;;;;;5063742;28;21095;-72
2023/04/28 14:12:36;;;;;;;6.13;2.57;;;15.70;99.90;;;;;;5046483;28;20959;-72
2023/04/28 14:15:22;;;;;;;3.93;2.10;;;15.70;99.90;;;;;;5053401;28;20446;-72
2023/04/28 14:18:08;;;;;;;3.53;2.43;;;15.70;99.90;;;;;;5049335;28;20493;-72
2023/04/28 14:20:53;;;;;;;5.80;2.50;;;15.60;99.90;;;;;;5051958;28;20451;-72
2023/04/28 14:23:39;;;;;;;6.23;2.40;;;15.70;99.90;;;;;;5053247;28;20441;-72